This is the latest recevied weather packets stored in our database for station/object KB1PVH-13. If no packets are shown the sender has not sent any weather packets the latest 10 day(s).
| Time | Temp. | Humidity | Pressure | Rain* | Wind** | Luminosity | Snow |
|---|---|---|---|---|---|---|---|
| 1777550417 | 8.33° C | 94% | 924.2 hPa | 0 mm | - | - | - |
| 1777548616 | 7.78° C | 94% | 924.2 hPa | 0 mm | - | - | - |
| 1777545616 | 7.78° C | 95% | 924.1 hPa | 0 mm | - | - | - |
| 1777541416 | 7.78° C | 95% | 924.2 hPa | 0.76 mm | - | - | - |
| 1777536617 | 7.78° C | 94% | 924.3 hPa | 1.52 mm | - | - | - |
| 1777532417 | 7.78° C | 94% | 926 hPa | 0 mm | - | - | - |
| 1777530617 | 7.78° C | 94% | 926 hPa | 0 mm | - | - | - |
| 1777530017 | 7.78° C | 94% | 926 hPa | 0 mm | - | - | - |
| 1777519838 | 7.78° C | 92% | 927.7 hPa | 0 mm | - | - | - |
| 1777519217 | 7.78° C | 92% | 927.8 hPa | 0 mm | - | - | - |
| 1777513817 | 8.33° C | 87% | 928.9 hPa | 0 mm | - | - | - |
| 1777510817 | 8.33° C | 84% | 928.7 hPa | 0 mm | - | - | - |
| 1777506617 | 10° C | 77% | 928.5 hPa | 0 mm | - | - | - |
| 1777506017 | 10.56° C | 76% | 928.3 hPa | 0 mm | - | - | - |
| 1777502417 | 12.78° C | 69% | 928.3 hPa | 0 mm | - | - | - |
| 1777500617 | 14.44° C | 64% | 928.1 hPa | 0 mm | - | - | - |
| 1777500018 | 14.44° C | 64% | 928.4 hPa | 0 mm | - | - | - |
| 1777497617 | 16.11° C | 58% | 929.1 hPa | 0 mm | - | - | - |
| 1777494016 | 17.22° C | 57% | 928.5 hPa | 0 mm | - | - | - |
| 1777493416 | 16.67° C | 56% | 928.9 hPa | 0 mm | - | - | - |
| 1777492816 | 16.67° C | 57% | 928.9 hPa | 0 mm | - | - | - |
| 1777487436 | 17.78° C | 49% | 930.4 hPa | 0 mm | - | - | - |
| 1777482616 | 14.44° C | 62% | 931.1 hPa | 0 mm | - | - | - |
| 1777478416 | 13.33° C | 65% | 931.6 hPa | 0 mm | - | - | - |
| 1777474816 | 13.89° C | 62% | 932 hPa | 0 mm | - | - | - |
* Rain latest hour (hover to see other rain measurements)
** Current wind speed in m/s (hover to see current wind gust speed)